createdAt,value
2023-01-25T00:02:23.952Z,23.15
2023-01-25T00:04:50.398Z,22.00
2023-01-25T00:07:16.789Z,21.15
2023-01-25T00:09:43.196Z,22.50
2023-01-25T00:12:09.591Z,21.00
2023-01-25T00:14:36.019Z,21.73
2023-01-25T00:17:02.422Z,21.58
2023-01-25T00:19:29.152Z,22.75
2023-01-25T00:21:55.569Z,18.50
2023-01-25T00:24:25.901Z,21.83
2023-01-25T00:26:52.374Z,21.67
2023-01-25T00:29:18.811Z,21.80
2023-01-25T00:32:02.449Z,21.20
2023-01-25T00:34:29.789Z,21.02
2023-01-25T00:36:58.213Z,21.60
2023-01-25T00:39:27.032Z,19.55
2023-01-25T00:41:54.280Z,21.33
2023-01-25T00:44:21.112Z,19.23
2023-01-25T00:46:47.886Z,20.95
2023-01-25T00:49:33.443Z,20.20
2023-01-25T00:52:00.322Z,22.20
2023-01-25T00:54:26.817Z,19.30
2023-01-25T00:56:53.864Z,22.05
2023-01-25T00:59:20.402Z,22.63
2023-01-25T01:01:47.064Z,29.88
2023-01-25T01:04:13.613Z,24.80
2023-01-25T01:06:41.304Z,22.02
2023-01-25T01:09:12.316Z,21.73
2023-01-25T01:11:38.803Z,22.25
2023-01-25T01:14:05.233Z,22.33
2023-01-25T01:16:32.082Z,24.48
2023-01-25T01:18:58.491Z,35.22
2023-01-25T01:21:24.966Z,31.85
2023-01-25T01:23:51.374Z,24.48
2023-01-25T01:26:21.459Z,22.77
2023-01-25T01:28:48.462Z,25.70
2023-01-25T01:31:20.424Z,26.92
2023-01-25T01:33:52.579Z,22.52
2023-01-25T01:36:20.566Z,28.17
2023-01-25T01:38:47.513Z,22.20
2023-01-25T01:41:15.179Z,18.52
2023-01-25T01:43:42.152Z,20.58
2023-01-25T01:46:17.381Z,19.63
2023-01-25T01:48:49.732Z,19.40
2023-01-25T01:51:41.460Z,24.52
2023-01-25T01:57:09.596Z,19.90
2023-01-25T02:00:02.692Z,18.48
2023-01-25T02:02:29.240Z,19.10
2023-01-25T02:04:59.712Z,19.80
2023-01-25T02:07:37.764Z,19.42
2023-01-25T02:10:11.221Z,17.50
2023-01-25T02:12:38.494Z,20.67
2023-01-25T02:15:05.573Z,18.52
2023-01-25T02:17:37.740Z,20.35
2023-01-25T02:20:21.982Z,21.38
2023-01-25T02:23:12.633Z,21.40
2023-01-25T02:25:41.055Z,18.55
2023-01-25T02:28:15.378Z,16.58
2023-01-25T02:30:42.972Z,19.35
2023-01-25T02:33:09.988Z,16.65
2023-01-25T02:35:59.723Z,17.40
2023-01-25T02:38:26.820Z,20.55
2023-01-25T02:41:02.266Z,18.20
2023-01-25T02:43:31.285Z,19.08
2023-01-25T02:46:10.711Z,18.92
2023-01-25T02:48:37.223Z,19.50
2023-01-25T02:51:07.101Z,18.92
2023-01-25T02:53:40.546Z,18.83
2023-01-25T02:56:08.326Z,19.20
2023-01-25T02:58:41.095Z,19.25
2023-01-25T03:01:07.786Z,18.25
2023-01-25T03:03:34.227Z,20.02
2023-01-25T03:06:00.727Z,20.75
2023-01-25T03:08:27.210Z,19.40
2023-01-25T03:11:02.617Z,20.05
2023-01-25T03:13:29.788Z,18.70
2023-01-25T03:16:05.000Z,20.80
2023-01-25T03:18:32.497Z,17.45
2023-01-25T03:21:25.306Z,19.17
2023-01-25T03:24:21.324Z,18.75
2023-01-25T03:27:26.615Z,19.63
2023-01-25T03:29:53.068Z,19.10
2023-01-25T03:32:19.567Z,16.95
2023-01-25T03:34:46.188Z,19.45
2023-01-25T03:37:26.018Z,18.58
2023-01-25T03:39:52.895Z,18.55
2023-01-25T03:42:26.618Z,19.85
2023-01-25T03:44:56.416Z,19.23
2023-01-25T03:47:27.113Z,19.73
2023-01-25T03:49:53.595Z,17.83
2023-01-25T03:52:20.039Z,17.70
2023-01-25T03:54:46.421Z,17.17
2023-01-25T03:57:12.977Z,18.13
2023-01-25T03:59:39.413Z,17.38
2023-01-25T04:02:05.884Z,16.02
2023-01-25T04:04:32.401Z,20.58
2023-01-25T04:06:58.803Z,19.75
2023-01-25T04:09:25.259Z,18.85
2023-01-25T04:11:52.116Z,22.75
2023-01-25T04:14:28.473Z,18.08
2023-01-25T04:17:05.263Z,21.08
2023-01-25T04:19:31.723Z,23.35
2023-01-25T04:21:58.230Z,20.50
2023-01-25T04:24:24.685Z,22.65
2023-01-25T04:26:51.160Z,20.52
2023-01-25T04:29:17.623Z,21.95
2023-01-25T04:31:44.086Z,20.40
2023-01-25T04:34:10.571Z,20.75
2023-01-25T04:36:36.977Z,21.35
2023-01-25T04:39:03.437Z,20.45
2023-01-25T04:41:30.740Z,21.20
2023-01-25T04:43:57.252Z,28.80
2023-01-25T04:46:23.653Z,34.42
2023-01-25T04:48:50.059Z,22.00
2023-01-25T04:51:16.471Z,22.95
2023-01-25T04:53:42.873Z,19.70
2023-01-25T04:56:09.272Z,21.70
2023-01-25T04:58:35.770Z,22.45
2023-01-25T05:01:03.454Z,23.17
2023-01-25T05:03:30.418Z,22.95
2023-01-25T05:05:56.833Z,22.52
2023-01-25T05:08:23.390Z,19.40
2023-01-25T05:10:49.806Z,19.17
2023-01-25T05:13:16.234Z,20.67
2023-01-25T05:15:42.692Z,21.40
2023-01-25T05:18:09.135Z,22.75
2023-01-25T05:20:35.849Z,20.88
2023-01-25T05:23:02.353Z,22.45
2023-01-25T05:25:47.094Z,21.95
2023-01-25T05:28:13.514Z,22.02
2023-01-25T05:30:40.003Z,21.85
2023-01-25T05:33:06.482Z,22.92
2023-01-25T05:35:32.902Z,23.20
2023-01-25T05:37:59.545Z,22.52
2023-01-25T05:40:26.632Z,24.83
2023-01-25T05:42:55.049Z,22.00
2023-01-25T05:45:21.483Z,21.20
2023-01-25T05:47:53.045Z,22.70
2023-01-25T05:52:46.525Z,23.55
2023-01-25T05:55:15.188Z,24.83
2023-01-25T05:57:42.181Z,21.92
2023-01-25T06:00:09.902Z,23.83
2023-01-25T06:02:36.989Z,22.55
2023-01-25T06:05:04.876Z,22.10
2023-01-25T06:07:36.228Z,22.85
2023-01-25T06:10:04.209Z,23.35
2023-01-25T06:12:30.818Z,25.80
2023-01-25T06:14:57.198Z,25.25
2023-01-25T06:17:23.668Z,24.90
2023-01-25T06:19:50.075Z,26.73
2023-01-25T06:22:16.476Z,31.30
2023-01-25T06:24:42.894Z,34.10
2023-01-25T06:27:10.852Z,27.10
2023-01-25T06:29:37.240Z,28.20
2023-01-25T06:32:03.916Z,25.27
2023-01-25T06:34:30.459Z,25.25
2023-01-25T06:36:56.890Z,25.08
2023-01-25T06:39:23.327Z,25.60
2023-01-25T06:41:49.741Z,26.60
2023-01-25T06:44:16.114Z,27.88
2023-01-25T06:46:42.613Z,27.75
2023-01-25T06:49:10.469Z,27.92
2023-01-25T06:51:36.933Z,27.90
2023-01-25T06:54:06.997Z,25.25
2023-01-25T06:56:33.470Z,28.48
2023-01-25T06:58:59.859Z,26.77
2023-01-25T07:01:30.309Z,28.83
2023-01-25T07:03:58.849Z,28.47
2023-01-25T07:06:26.565Z,28.65
2023-01-25T07:08:53.156Z,27.63
2023-01-25T07:11:19.568Z,30.50
2023-01-25T07:13:48.227Z,28.40
2023-01-25T07:16:18.313Z,30.52
2023-01-25T07:18:45.082Z,31.15
2023-01-25T07:21:21.190Z,30.55
2023-01-25T07:23:49.148Z,28.33
2023-01-25T07:26:18.455Z,32.55
2023-01-25T07:28:47.774Z,31.27
2023-01-25T07:31:15.560Z,32.33
2023-01-25T07:33:42.347Z,35.22
2023-01-25T07:36:11.038Z,33.67
2023-01-25T07:38:37.734Z,35.17
2023-01-25T07:41:04.564Z,31.98
2023-01-25T07:43:31.289Z,28.33
2023-01-25T07:46:03.161Z,30.10
2023-01-25T07:48:30.110Z,28.63
2023-01-25T07:51:12.495Z,32.85
2023-01-25T07:53:43.254Z,29.10
2023-01-25T07:56:11.681Z,30.55
2023-01-25T07:58:38.490Z,30.40
2023-01-25T08:01:08.649Z,32.42
2023-01-25T08:03:35.066Z,32.40
2023-01-25T08:06:01.574Z,34.30
2023-01-25T08:08:28.037Z,33.22
2023-01-25T08:10:54.468Z,33.47
2023-01-25T08:13:20.846Z,32.20
2023-01-25T08:15:54.360Z,33.63
2023-01-25T08:18:20.751Z,32.45
2023-01-25T08:20:47.896Z,32.10
2023-01-25T08:23:14.326Z,33.50
2023-01-25T08:25:40.816Z,33.53
2023-01-25T08:28:07.847Z,32.00
2023-01-25T08:30:34.475Z,32.42
2023-01-25T08:33:00.879Z,33.63
2023-01-25T08:35:27.276Z,34.15
2023-01-25T08:37:53.671Z,33.65
2023-01-25T08:40:20.193Z,34.28
2023-01-25T08:42:46.690Z,33.13
2023-01-25T08:45:13.182Z,37.92
2023-01-25T08:47:39.565Z,39.47
2023-01-25T08:50:06.884Z,41.08
2023-01-25T08:52:33.613Z,40.90
2023-01-25T08:55:00.798Z,46.97
2023-01-25T08:57:27.242Z,41.60
2023-01-25T08:59:53.744Z,34.20
2023-01-25T09:02:21.519Z,37.40
2023-01-25T09:04:47.992Z,34.72
2023-01-25T09:07:14.522Z,36.92
2023-01-25T09:09:40.912Z,39.85
2023-01-25T09:12:09.426Z,38.78
2023-01-25T09:14:37.559Z,35.92
2023-01-25T09:17:03.965Z,39.97
2023-01-25T09:19:30.432Z,38.38
2023-01-25T09:21:56.849Z,35.47
2023-01-25T09:24:23.376Z,38.45
2023-01-25T09:29:30.488Z,145.50
2023-01-25T09:31:57.029Z,244.35
2023-01-25T09:34:23.508Z,185.88
2023-01-25T09:36:49.941Z,221.13
2023-01-25T09:39:16.448Z,89.85
2023-01-25T09:42:16.012Z,110.78
2023-01-25T09:45:00.799Z,87.32
2023-01-25T09:47:35.944Z,41.72
2023-01-25T09:50:29.637Z,38.80
2023-01-25T09:53:21.563Z,57.90
2023-01-25T09:55:54.273Z,43.17
2023-01-25T09:58:27.352Z,40.00
2023-01-25T10:01:09.648Z,38.40
2023-01-25T10:04:20.147Z,34.63
2023-01-25T10:07:00.091Z,34.90
2023-01-25T10:09:36.704Z,34.28
2023-01-25T10:12:16.208Z,38.63
2023-01-25T10:14:42.698Z,35.22
2023-01-25T10:17:35.535Z,33.35
2023-01-25T10:20:08.418Z,38.70
2023-01-25T10:22:53.288Z,37.67
2023-01-25T10:25:56.656Z,38.58
2023-01-25T10:28:39.170Z,39.63
2023-01-25T10:31:14.987Z,41.28
2023-01-25T10:33:45.014Z,35.72
2023-01-25T10:36:27.635Z,36.47
2023-01-25T10:38:59.439Z,37.65
2023-01-25T10:41:47.536Z,31.90
2023-01-25T10:44:24.855Z,29.45
2023-01-25T10:47:07.555Z,27.02
2023-01-25T10:49:50.817Z,24.55
2023-01-25T10:52:21.426Z,23.85
2023-01-25T10:55:04.547Z,23.37
2023-01-25T10:57:31.155Z,20.77
2023-01-25T11:00:00.462Z,21.38
2023-01-25T11:02:36.239Z,16.55
2023-01-25T11:05:29.541Z,16.67
2023-01-25T11:07:57.320Z,19.35
2023-01-25T11:10:37.085Z,18.75
2023-01-25T11:13:15.456Z,19.85
2023-01-25T11:15:41.840Z,14.75
2023-01-25T11:18:16.078Z,18.13
2023-01-25T11:20:42.557Z,13.93
2023-01-25T11:23:24.801Z,11.02
2023-01-25T11:25:52.391Z,11.00
2023-01-25T11:28:23.249Z,12.25
2023-01-25T11:30:53.663Z,10.80
2023-01-25T11:33:22.298Z,11.18
2023-01-25T11:36:39.228Z,9.50
2023-01-25T11:39:08.540Z,10.63
2023-01-25T11:42:09.560Z,9.75
2023-01-25T11:44:50.135Z,8.90
2023-01-25T11:47:25.699Z,10.10
2023-01-25T11:50:04.103Z,9.73
2023-01-25T11:52:51.848Z,9.85
2023-01-25T11:55:24.750Z,10.55
2023-01-25T11:58:15.630Z,9.27
2023-01-25T12:00:55.143Z,11.48
2023-01-25T12:03:42.849Z,13.35
2023-01-25T12:06:22.181Z,11.32
2023-01-25T12:09:41.379Z,9.23
2023-01-25T12:12:21.345Z,9.00
2023-01-25T12:15:23.790Z,9.43
2023-01-25T12:18:09.069Z,10.63
2023-01-25T12:20:49.101Z,10.00
2023-01-25T12:23:32.474Z,8.68
2023-01-25T12:26:10.872Z,9.70
2023-01-25T12:29:02.441Z,8.43
2023-01-25T12:31:43.507Z,11.98
2023-01-25T12:34:18.128Z,9.45
2023-01-25T12:36:48.307Z,8.30
2023-01-25T12:39:24.613Z,8.10
2023-01-25T12:42:04.432Z,7.25
2023-01-25T12:44:33.498Z,9.18
2023-01-25T12:47:34.061Z,10.98
2023-01-25T12:50:15.555Z,7.70
2023-01-25T12:55:27.716Z,7.60
2023-01-25T12:58:03.847Z,8.07
2023-01-25T13:01:11.766Z,7.38
2023-01-25T13:03:53.374Z,7.22
2023-01-25T13:09:07.944Z,6.43
2023-01-25T13:11:38.845Z,8.32
2023-01-25T13:14:29.922Z,8.98
2023-01-25T13:17:11.540Z,9.23
2023-01-25T13:19:37.930Z,10.13
2023-01-25T13:22:04.895Z,9.50
2023-01-25T13:24:55.406Z,7.90
2023-01-25T13:27:30.048Z,6.82
2023-01-25T13:30:03.664Z,6.97
2023-01-25T13:32:32.823Z,8.02
2023-01-25T13:35:00.499Z,8.48
2023-01-25T13:37:32.284Z,8.50
2023-01-25T13:40:08.805Z,7.63
2023-01-25T13:42:38.666Z,8.73
2023-01-25T13:45:08.148Z,8.77
2023-01-25T13:47:38.216Z,7.38
2023-01-25T13:50:25.665Z,9.10
2023-01-25T13:53:00.466Z,9.10
2023-01-25T13:55:28.050Z,8.00
2023-01-25T13:58:27.156Z,6.90
2023-01-25T14:01:13.262Z,7.43
2023-01-25T14:03:46.989Z,5.95
2023-01-25T14:06:20.509Z,7.95
2023-01-25T14:08:48.939Z,8.23
2023-01-25T14:11:30.053Z,8.13
2023-01-25T14:13:58.479Z,7.80
2023-01-25T14:16:25.089Z,7.82
2023-01-25T14:18:51.524Z,8.85
2023-01-25T14:21:19.143Z,9.07
2023-01-25T14:23:47.084Z,13.40
2023-01-25T14:26:18.989Z,10.05
2023-01-25T14:28:59.221Z,10.63
2023-01-25T14:31:34.516Z,8.73
2023-01-25T14:34:04.169Z,9.80
2023-01-25T14:36:34.180Z,8.77
2023-01-25T14:39:02.069Z,8.30
2023-01-25T14:41:33.927Z,8.80
2023-01-25T14:44:10.465Z,8.50
2023-01-25T14:46:39.159Z,8.35
2023-01-25T14:49:10.063Z,9.43
2023-01-25T14:51:41.633Z,9.77
2023-01-25T14:54:26.349Z,8.52
2023-01-25T14:56:57.809Z,9.07
2023-01-25T15:01:56.202Z,8.77
2023-01-25T15:04:23.449Z,8.65
2023-01-25T15:06:52.393Z,9.38
2023-01-25T15:09:39.345Z,10.25
2023-01-25T15:12:23.174Z,10.13
2023-01-25T15:14:52.332Z,8.95
2023-01-25T15:17:43.175Z,10.10
2023-01-25T15:20:31.287Z,9.80
2023-01-25T15:23:00.525Z,7.47
2023-01-25T15:25:27.045Z,10.35
2023-01-25T15:28:05.026Z,8.80
2023-01-25T15:30:35.524Z,8.88
2023-01-25T15:33:02.323Z,11.35
2023-01-25T15:35:29.515Z,10.40
2023-01-25T15:37:58.943Z,10.50
2023-01-25T15:40:25.468Z,10.07
2023-01-25T15:42:51.934Z,9.88
2023-01-25T15:45:18.344Z,10.55
2023-01-25T15:47:44.772Z,10.98
2023-01-25T15:50:18.053Z,10.88
2023-01-25T15:52:44.778Z,13.50
2023-01-25T15:55:13.160Z,14.15
2023-01-25T15:57:41.375Z,17.13
2023-01-25T16:00:18.420Z,16.27
2023-01-25T16:02:44.862Z,18.58
2023-01-25T16:05:11.864Z,14.77
2023-01-25T16:07:39.716Z,17.25
2023-01-25T16:10:12.343Z,16.30
2023-01-25T16:12:38.873Z,16.35
2023-01-25T16:15:21.267Z,14.43
2023-01-25T16:17:50.403Z,14.30
2023-01-25T16:20:22.144Z,12.65
2023-01-25T16:22:51.252Z,15.73
2023-01-25T16:25:17.738Z,12.82
2023-01-25T16:27:47.330Z,13.80
2023-01-25T16:30:23.966Z,12.40
2023-01-25T16:32:51.536Z,14.93
2023-01-25T16:35:18.083Z,15.32
2023-01-25T16:37:44.697Z,18.73
2023-01-25T16:40:38.527Z,18.70
2023-01-25T16:43:05.773Z,23.05
2023-01-25T16:45:32.418Z,21.38
2023-01-25T16:47:58.901Z,21.85
2023-01-25T16:50:25.377Z,19.42
2023-01-25T16:52:51.880Z,20.75
2023-01-25T16:55:19.284Z,20.80
2023-01-25T16:57:50.303Z,19.27
2023-01-25T17:00:17.220Z,19.27
2023-01-25T17:02:56.971Z,18.30
2023-01-25T17:05:25.013Z,24.67
2023-01-25T17:07:51.681Z,33.90
2023-01-25T17:10:18.178Z,42.10
2023-01-25T17:12:45.430Z,38.42
2023-01-25T17:15:11.929Z,37.72
2023-01-25T17:17:38.336Z,35.97
2023-01-25T17:20:05.267Z,33.00
2023-01-25T17:22:37.279Z,31.23
2023-01-25T17:25:06.802Z,29.02
2023-01-25T17:27:33.290Z,23.30
2023-01-25T17:29:59.687Z,22.05
2023-01-25T17:32:26.174Z,20.33
2023-01-25T17:34:53.702Z,16.77
2023-01-25T17:37:20.289Z,16.52
2023-01-25T17:39:47.624Z,18.63
2023-01-25T17:42:14.510Z,21.08
2023-01-25T17:44:40.957Z,20.52
2023-01-25T17:47:08.373Z,23.77
2023-01-25T17:49:34.857Z,22.10
2023-01-25T17:52:02.713Z,20.83
2023-01-25T17:54:29.151Z,21.42
2023-01-25T17:56:56.290Z,19.67
2023-01-25T17:59:23.317Z,21.83
2023-01-25T18:01:50.458Z,23.00
2023-01-25T18:04:17.666Z,24.15
2023-01-25T18:06:44.491Z,29.52
2023-01-25T18:09:11.051Z,30.67
2023-01-25T18:11:40.704Z,32.92
2023-01-25T18:14:16.741Z,41.88
2023-01-25T18:16:44.749Z,41.83
2023-01-25T18:19:11.670Z,33.70
2023-01-25T18:21:39.299Z,31.63
2023-01-25T18:24:27.737Z,33.13
2023-01-25T18:27:03.768Z,38.55
2023-01-25T18:29:43.689Z,40.42
2023-01-25T18:32:10.155Z,42.00
2023-01-25T18:34:36.570Z,29.55
2023-01-25T18:37:03.127Z,30.83
2023-01-25T18:39:29.603Z,21.92
2023-01-25T18:41:56.055Z,20.48
2023-01-25T18:44:23.222Z,26.80
2023-01-25T18:46:49.807Z,24.02
2023-01-25T18:49:16.281Z,26.95
2023-01-25T18:52:02.260Z,28.88
2023-01-25T18:54:31.358Z,22.35
2023-01-25T18:56:57.759Z,19.17
2023-01-25T18:59:24.166Z,18.77
2023-01-25T19:01:50.618Z,19.60
2023-01-25T19:04:17.046Z,19.55
2023-01-25T19:06:43.576Z,23.08
2023-01-25T19:09:10.028Z,30.67
2023-01-25T19:11:36.477Z,24.50
2023-01-25T19:14:02.952Z,25.35
2023-01-25T19:16:29.436Z,24.75
2023-01-25T19:18:55.869Z,27.27
2023-01-25T19:21:24.671Z,20.90
2023-01-25T19:23:52.131Z,20.98
2023-01-25T19:26:21.858Z,17.10
2023-01-25T19:28:48.509Z,10.10
2023-01-25T19:31:16.551Z,9.48
2023-01-25T19:33:43.828Z,9.30
2023-01-25T19:36:20.887Z,14.48
2023-01-25T19:38:48.948Z,12.77
2023-01-25T19:41:18.129Z,15.52
2023-01-25T19:43:44.621Z,16.92
2023-01-25T19:46:16.465Z,18.85
2023-01-25T19:48:44.838Z,16.75
2023-01-25T19:51:18.688Z,18.17
2023-01-25T19:53:48.663Z,25.20
2023-01-25T19:56:16.873Z,22.98
2023-01-25T19:58:48.208Z,20.60
2023-01-25T20:01:17.379Z,19.58
2023-01-25T20:03:43.919Z,18.98
2023-01-25T20:06:11.815Z,17.25
2023-01-25T20:08:40.332Z,16.05
2023-01-25T20:11:21.764Z,15.68
2023-01-25T20:13:50.775Z,17.70
2023-01-25T20:16:17.802Z,19.85
2023-01-25T20:18:46.024Z,20.35
2023-01-25T20:21:19.322Z,22.70
2023-01-25T20:23:48.325Z,26.60
2023-01-25T20:26:23.602Z,25.35
2023-01-25T20:28:51.627Z,23.63
2023-01-25T20:31:19.834Z,22.17
2023-01-25T20:33:46.756Z,18.08
2023-01-25T20:36:13.344Z,34.60
2023-01-25T20:38:39.813Z,20.48
2023-01-25T20:41:08.926Z,13.50
2023-01-25T20:43:35.567Z,13.95
2023-01-25T20:46:02.553Z,14.38
2023-01-25T20:48:29.654Z,14.07
2023-01-25T20:51:09.720Z,13.73
2023-01-25T20:53:36.898Z,14.95
2023-01-25T20:56:03.422Z,15.38
2023-01-25T20:58:29.850Z,18.55
2023-01-25T21:00:56.341Z,21.63
2023-01-25T21:03:23.689Z,24.98
2023-01-25T21:06:00.421Z,22.38
2023-01-25T21:08:27.896Z,23.90
2023-01-25T21:10:56.924Z,23.65
2023-01-25T21:13:24.070Z,28.05
2023-01-25T21:16:15.126Z,23.48
2023-01-25T21:18:46.836Z,27.92
2023-01-25T21:21:15.619Z,23.17
2023-01-25T21:23:44.859Z,23.33
2023-01-25T21:26:23.538Z,24.48
2023-01-25T21:28:51.391Z,23.52
2023-01-25T21:31:20.642Z,26.27
2023-01-25T21:33:47.740Z,27.83
2023-01-25T21:36:15.747Z,26.58
2023-01-25T21:38:48.301Z,28.50
2023-01-25T21:41:20.031Z,26.25
2023-01-25T21:44:06.029Z,31.38
2023-01-25T21:46:33.327Z,27.90
2023-01-25T21:49:20.503Z,28.48
2023-01-25T21:51:49.650Z,27.60
2023-01-25T21:54:18.588Z,29.80
2023-01-25T21:56:47.001Z,31.48
2023-01-25T21:59:14.906Z,28.77
2023-01-25T22:01:42.954Z,26.08
2023-01-25T22:04:10.315Z,24.63
2023-01-25T22:06:36.892Z,23.77
2023-01-25T22:09:04.069Z,27.23
2023-01-25T22:11:30.663Z,28.00
2023-01-25T22:13:57.167Z,27.92
2023-01-25T22:16:23.857Z,28.92
2023-01-25T22:18:51.058Z,25.00
2023-01-25T22:21:20.396Z,26.38
2023-01-25T22:23:47.402Z,24.60
2023-01-25T22:26:22.274Z,25.42
2023-01-25T22:28:53.876Z,23.98
2023-01-25T22:33:50.899Z,26.67
2023-01-25T22:36:19.279Z,27.23
2023-01-25T22:38:46.268Z,24.00
2023-01-25T22:41:18.400Z,27.65
2023-01-25T22:43:45.594Z,25.45
2023-01-25T22:46:17.094Z,25.02
2023-01-25T22:51:12.930Z,21.88
2023-01-25T22:53:39.366Z,21.90
2023-01-25T22:56:08.447Z,21.73
2023-01-25T22:58:36.067Z,21.80
2023-01-25T23:01:03.385Z,20.67
2023-01-25T23:03:29.882Z,22.23
2023-01-25T23:06:05.009Z,20.33
2023-01-25T23:08:33.750Z,19.80
2023-01-25T23:11:05.773Z,23.33
2023-01-25T23:13:32.602Z,19.92
2023-01-25T23:16:03.993Z,21.08
2023-01-25T23:18:49.619Z,20.55
2023-01-25T23:21:17.896Z,21.20
2023-01-25T23:23:44.677Z,18.98
2023-01-25T23:26:11.545Z,18.52
2023-01-25T23:28:38.529Z,19.50
2023-01-25T23:31:21.477Z,20.13
2023-01-25T23:33:53.255Z,18.42
2023-01-25T23:36:22.653Z,19.30
2023-01-25T23:38:49.826Z,18.65
2023-01-25T23:41:18.083Z,20.35
2023-01-25T23:43:44.889Z,20.80
2023-01-25T23:46:14.245Z,17.98
2023-01-25T23:48:45.046Z,19.63
2023-01-25T23:51:13.211Z,20.35
2023-01-25T23:53:40.409Z,19.10
2023-01-25T23:56:18.901Z,20.67
2023-01-25T23:58:46.260Z,22.50
